createdAt,value
2017-08-26T00:00:02.524Z,14.00
2017-08-26T00:02:35.787Z,14.00
2017-08-26T00:05:03.313Z,14.00
2017-08-26T00:07:30.831Z,13.90
2017-08-26T00:09:58.349Z,13.90
2017-08-26T00:12:25.855Z,13.70
2017-08-26T00:14:53.359Z,13.60
2017-08-26T00:17:20.857Z,13.50
2017-08-26T00:19:48.354Z,13.40
2017-08-26T00:22:15.858Z,13.40
2017-08-26T00:24:43.365Z,13.50
2017-08-26T00:27:10.893Z,13.60
2017-08-26T00:29:38.395Z,13.60
2017-08-26T00:32:05.895Z,13.60
2017-08-26T00:34:33.429Z,13.60
2017-08-26T00:37:00.926Z,13.40
2017-08-26T00:39:28.440Z,13.40
2017-08-26T00:41:55.952Z,13.30
2017-08-26T00:44:23.484Z,13.30
2017-08-26T00:46:50.991Z,13.20
2017-08-26T00:49:18.483Z,13.20
2017-08-26T00:51:45.991Z,13.20
2017-08-26T00:54:13.479Z,13.20
2017-08-26T00:56:40.999Z,13.30
2017-08-26T00:59:08.544Z,13.30
2017-08-26T01:01:36.083Z,13.40
2017-08-26T01:04:03.613Z,13.20
2017-08-26T01:06:31.159Z,13.10
2017-08-26T01:08:58.658Z,13.20
2017-08-26T01:11:27.184Z,13.20
2017-08-26T01:13:54.688Z,13.30
2017-08-26T01:16:22.220Z,13.30
2017-08-26T01:18:49.735Z,13.20
2017-08-26T01:21:17.229Z,13.10
2017-08-26T01:23:44.754Z,13.10
2017-08-26T01:26:12.292Z,13.20
2017-08-26T01:28:39.814Z,13.20
2017-08-26T01:31:07.316Z,13.20
2017-08-26T01:33:34.832Z,13.00
2017-08-26T01:36:02.342Z,12.90
2017-08-26T01:38:29.881Z,13.00
2017-08-26T01:40:57.399Z,13.10
2017-08-26T01:43:24.921Z,13.10
2017-08-26T01:45:52.420Z,13.00
2017-08-26T01:48:19.925Z,13.00
2017-08-26T01:50:47.440Z,12.80
2017-08-26T01:53:14.954Z,12.80
2017-08-26T01:55:42.457Z,12.90
2017-08-26T01:58:09.958Z,13.00
2017-08-26T02:00:37.451Z,13.00
2017-08-26T02:03:04.976Z,13.00
2017-08-26T02:05:32.470Z,13.00
2017-08-26T02:07:59.951Z,12.80
2017-08-26T02:10:27.451Z,12.70
2017-08-26T02:12:54.939Z,12.60
2017-08-26T02:15:22.471Z,12.60
2017-08-26T02:17:49.978Z,12.60
2017-08-26T02:20:17.493Z,12.70
2017-08-26T02:22:44.990Z,12.70
2017-08-26T02:25:12.507Z,12.60
2017-08-26T02:27:40.792Z,12.50
2017-08-26T02:30:08.315Z,12.60
2017-08-26T02:32:35.815Z,12.70
2017-08-26T02:35:03.333Z,12.60
2017-08-26T02:37:30.846Z,12.60
2017-08-26T02:39:58.361Z,12.50
2017-08-26T02:42:25.873Z,12.40
2017-08-26T02:44:53.420Z,12.40
2017-08-26T02:47:20.926Z,12.30
2017-08-26T02:49:48.445Z,12.20
2017-08-26T02:52:15.940Z,12.20
2017-08-26T02:54:43.449Z,12.20
2017-08-26T02:57:10.983Z,12.20
2017-08-26T02:59:38.497Z,12.30
2017-08-26T03:02:06.044Z,12.40
2017-08-26T03:04:33.567Z,12.50
2017-08-26T03:07:01.091Z,12.60
2017-08-26T03:09:28.595Z,12.60
2017-08-26T03:11:59.455Z,12.60
2017-08-26T03:14:26.968Z,12.50
2017-08-26T03:16:54.468Z,12.50
2017-08-26T03:19:21.973Z,12.50
2017-08-26T03:21:49.485Z,12.40
2017-08-26T03:24:17.028Z,12.40
2017-08-26T03:26:44.568Z,12.30
2017-08-26T03:29:12.102Z,12.40
2017-08-26T03:31:39.620Z,12.50
2017-08-26T03:34:07.143Z,12.60
2017-08-26T03:36:34.675Z,12.50
2017-08-26T03:39:02.229Z,12.40
2017-08-26T03:41:29.765Z,12.60
2017-08-26T03:43:57.295Z,12.70
2017-08-26T03:46:24.843Z,12.70
2017-08-26T03:48:52.409Z,12.70
2017-08-26T03:51:19.934Z,12.80
2017-08-26T03:53:47.503Z,12.90
2017-08-26T03:56:15.662Z,12.80
2017-08-26T03:58:43.212Z,12.80
2017-08-26T04:01:10.736Z,12.80
2017-08-26T04:03:38.256Z,12.90
2017-08-26T04:06:05.809Z,13.10
2017-08-26T04:08:33.482Z,13.10
2017-08-26T04:11:01.002Z,13.20
2017-08-26T04:13:28.550Z,13.00
2017-08-26T04:15:56.061Z,12.80
2017-08-26T04:18:23.572Z,12.90
2017-08-26T04:20:51.102Z,13.00
2017-08-26T04:23:18.620Z,13.00
2017-08-26T04:25:46.222Z,13.10
2017-08-26T04:28:13.737Z,13.10
2017-08-26T04:30:41.273Z,13.00
2017-08-26T04:33:08.794Z,13.10
2017-08-26T04:35:36.320Z,13.10
2017-08-26T04:38:03.820Z,13.10
2017-08-26T04:40:31.385Z,13.00
2017-08-26T04:42:58.903Z,13.00
2017-08-26T04:45:26.420Z,13.00
2017-08-26T04:47:53.920Z,13.10
2017-08-26T04:50:21.539Z,13.10
2017-08-26T04:52:49.029Z,13.20
2017-08-26T04:55:16.548Z,13.20
2017-08-26T04:57:44.073Z,13.30
2017-08-26T05:00:11.640Z,13.20
2017-08-26T05:02:39.138Z,13.20
2017-08-26T05:05:06.665Z,13.40
2017-08-26T05:07:34.213Z,13.30
2017-08-26T05:10:01.742Z,13.20
2017-08-26T05:12:29.300Z,13.10
2017-08-26T05:14:56.825Z,13.10
2017-08-26T05:17:24.638Z,13.20
2017-08-26T05:19:52.247Z,13.30
2017-08-26T05:22:19.792Z,13.40
2017-08-26T05:24:47.301Z,13.50
2017-08-26T05:27:14.837Z,13.60
2017-08-26T05:29:42.415Z,13.60
2017-08-26T05:32:09.950Z,13.60
2017-08-26T05:34:37.473Z,13.60
2017-08-26T05:37:04.993Z,13.70
2017-08-26T05:39:32.528Z,13.70
2017-08-26T05:42:00.084Z,13.60
2017-08-26T05:44:27.595Z,13.80
2017-08-26T05:46:55.105Z,13.80
2017-08-26T05:49:22.629Z,13.80
2017-08-26T05:51:50.161Z,13.80
2017-08-26T05:54:17.700Z,13.90
2017-08-26T05:56:45.301Z,13.90
2017-08-26T05:59:12.839Z,13.90
2017-08-26T06:01:40.375Z,14.00
2017-08-26T06:04:07.875Z,14.00
2017-08-26T06:06:35.406Z,14.10
2017-08-26T06:09:02.973Z,14.20
2017-08-26T06:11:30.551Z,14.30
2017-08-26T06:13:58.110Z,14.30
2017-08-26T06:16:25.676Z,14.40
2017-08-26T06:18:53.224Z,14.40
2017-08-26T06:21:20.777Z,14.50
2017-08-26T06:23:48.330Z,14.60
2017-08-26T06:26:15.868Z,14.60
2017-08-26T06:28:43.397Z,14.70
2017-08-26T06:31:10.911Z,14.80
2017-08-26T06:33:38.412Z,14.90
2017-08-26T06:36:05.928Z,14.90
2017-08-26T06:38:33.431Z,15.00
2017-08-26T06:41:00.952Z,15.00
2017-08-26T06:43:28.452Z,15.10
2017-08-26T06:45:55.986Z,15.20
2017-08-26T06:48:23.524Z,15.20
2017-08-26T06:50:51.079Z,15.30
2017-08-26T06:53:18.593Z,15.40
2017-08-26T06:55:46.139Z,15.50
2017-08-26T06:58:13.721Z,15.50
2017-08-26T07:00:41.225Z,15.60
2017-08-26T07:03:08.744Z,15.60
2017-08-26T07:05:36.234Z,15.70
2017-08-26T07:08:03.783Z,15.80
2017-08-26T07:10:31.318Z,16.00
2017-08-26T07:12:58.882Z,16.10
2017-08-26T07:15:26.360Z,16.20
2017-08-26T07:17:53.900Z,16.20
2017-08-26T07:20:21.426Z,16.40
2017-08-26T07:22:48.974Z,16.50
2017-08-26T07:25:16.478Z,16.60
2017-08-26T07:27:44.028Z,16.60
2017-08-26T07:30:11.676Z,16.70
2017-08-26T07:32:39.247Z,16.90
2017-08-26T07:35:06.768Z,17.00
2017-08-26T07:37:34.269Z,17.10
2017-08-26T07:40:01.811Z,17.20
2017-08-26T07:42:29.371Z,17.30
2017-08-26T07:44:56.931Z,17.50
2017-08-26T07:47:24.446Z,17.60
2017-08-26T07:49:52.089Z,17.70
2017-08-26T07:52:19.693Z,17.80
2017-08-26T07:54:47.212Z,17.80
2017-08-26T07:57:14.777Z,17.90
2017-08-26T07:59:42.307Z,18.00
2017-08-26T08:02:09.840Z,18.20
2017-08-26T08:04:37.684Z,18.20
2017-08-26T08:07:05.445Z,18.30
2017-08-26T08:09:32.971Z,18.30
2017-08-26T08:12:00.498Z,18.50
2017-08-26T08:14:28.032Z,18.60
2017-08-26T08:16:55.767Z,18.70
2017-08-26T08:19:23.384Z,18.80
2017-08-26T08:21:50.918Z,18.80
2017-08-26T08:24:18.427Z,19.00
2017-08-26T08:26:45.978Z,19.00
2017-08-26T08:29:13.671Z,19.10
2017-08-26T08:31:43.225Z,19.10
2017-08-26T08:34:10.776Z,19.10
2017-08-26T08:36:38.339Z,19.30
2017-08-26T08:39:05.896Z,19.40
2017-08-26T08:41:33.451Z,19.50
2017-08-26T08:44:00.968Z,19.60
2017-08-26T08:46:28.520Z,19.70
2017-08-26T08:48:56.071Z,19.80
2017-08-26T08:51:23.630Z,19.90
2017-08-26T08:53:51.149Z,20.00
2017-08-26T08:56:18.678Z,20.10
2017-08-26T08:58:46.583Z,20.10
2017-08-26T09:01:14.216Z,20.20
2017-08-26T09:03:44.686Z,20.30
2017-08-26T09:06:12.242Z,20.40
2017-08-26T09:08:39.768Z,20.40
2017-08-26T09:11:07.312Z,20.40
2017-08-26T09:13:34.950Z,20.50
2017-08-26T09:16:02.471Z,20.50
2017-08-26T09:18:29.989Z,20.60
2017-08-26T09:20:57.521Z,20.70
2017-08-26T09:23:25.051Z,20.70
2017-08-26T09:25:52.591Z,20.80
2017-08-26T09:28:20.230Z,20.90
2017-08-26T09:30:47.723Z,21.00
2017-08-26T09:33:15.286Z,21.10
2017-08-26T09:35:42.827Z,21.20
2017-08-26T09:38:10.332Z,21.30
2017-08-26T09:40:37.893Z,21.40
2017-08-26T09:43:05.443Z,21.50
2017-08-26T09:45:33.063Z,21.60
2017-08-26T09:48:00.576Z,21.70
2017-08-26T09:50:28.107Z,21.70
2017-08-26T09:52:55.663Z,21.70
2017-08-26T09:55:23.187Z,21.70
2017-08-26T09:57:50.685Z,21.70
2017-08-26T10:00:18.244Z,21.70
2017-08-26T10:02:45.755Z,21.80
2017-08-26T10:05:13.352Z,21.90
2017-08-26T10:07:40.873Z,21.90
2017-08-26T10:10:08.364Z,22.00
2017-08-26T10:12:35.895Z,22.00
2017-08-26T10:15:03.408Z,22.10
2017-08-26T10:17:30.942Z,22.20
2017-08-26T10:19:58.497Z,22.30
2017-08-26T10:22:26.034Z,22.50
2017-08-26T10:24:53.710Z,22.50
2017-08-26T10:27:21.407Z,22.70
2017-08-26T10:29:48.968Z,22.80
2017-08-26T10:32:16.512Z,23.00
2017-08-26T10:34:44.024Z,23.00
2017-08-26T10:37:11.544Z,23.30
2017-08-26T10:39:39.096Z,23.40
2017-08-26T10:42:06.655Z,23.40
2017-08-26T10:44:34.213Z,23.70
2017-08-26T10:47:02.344Z,23.90
2017-08-26T10:49:30.046Z,24.00
2017-08-26T10:51:57.691Z,24.10
2017-08-26T10:54:25.288Z,24.10
2017-08-26T10:56:52.827Z,24.10
2017-08-26T10:59:20.443Z,24.10
2017-08-26T11:01:48.020Z,24.10
2017-08-26T11:04:15.540Z,24.10
2017-08-26T11:06:43.150Z,24.00
2017-08-26T11:09:10.810Z,24.00
2017-08-26T11:11:38.402Z,24.10
2017-08-26T11:14:06.055Z,24.10
2017-08-26T11:16:33.676Z,24.10
2017-08-26T11:19:01.240Z,24.10
2017-08-26T11:21:28.773Z,24.20
2017-08-26T11:23:56.455Z,24.10
2017-08-26T11:26:23.969Z,24.10
2017-08-26T11:28:51.485Z,24.00
2017-08-26T11:31:19.057Z,24.10
2017-08-26T11:33:46.619Z,24.00
2017-08-26T11:36:14.500Z,23.90
2017-08-26T11:38:42.555Z,23.90
2017-08-26T11:41:10.198Z,23.90
2017-08-26T11:43:37.740Z,23.80
2017-08-26T11:46:06.425Z,23.70
2017-08-26T11:48:34.436Z,23.70
2017-08-26T11:51:03.531Z,23.60
2017-08-26T11:53:31.156Z,23.60
2017-08-26T11:55:58.676Z,23.60
2017-08-26T11:58:26.285Z,23.70
2017-08-26T12:00:53.847Z,23.70
2017-08-26T12:03:21.493Z,23.70
2017-08-26T12:05:49.052Z,23.70
2017-08-26T12:08:16.612Z,23.70
2017-08-26T12:10:44.160Z,23.80
2017-08-26T12:13:11.747Z,23.90
2017-08-26T12:15:39.292Z,24.00
2017-08-26T12:18:06.842Z,24.10
2017-08-26T12:20:34.370Z,24.10
2017-08-26T12:23:02.036Z,24.20
2017-08-26T12:25:29.553Z,24.20
2017-08-26T12:27:57.087Z,24.30
2017-08-26T12:30:24.585Z,24.30
2017-08-26T12:32:52.153Z,24.30
2017-08-26T12:35:19.685Z,24.40
2017-08-26T12:37:47.250Z,24.40
2017-08-26T12:40:14.806Z,24.40
2017-08-26T12:42:42.365Z,24.40
2017-08-26T12:45:10.033Z,24.40
2017-08-26T12:47:37.619Z,24.40
2017-08-26T12:50:09.946Z,24.40
2017-08-26T12:52:37.899Z,24.40
2017-08-26T12:55:05.405Z,24.30
2017-08-26T12:57:32.899Z,24.40
2017-08-26T13:00:00.550Z,24.40
2017-08-26T13:02:29.216Z,24.40
2017-08-26T13:04:59.877Z,24.30
2017-08-26T13:07:28.628Z,24.40
2017-08-26T13:09:56.261Z,24.50
2017-08-26T13:12:23.799Z,24.50
2017-08-26T13:14:51.364Z,24.50
2017-08-26T13:17:18.903Z,24.50
2017-08-26T13:19:46.427Z,24.50
2017-08-26T13:22:20.391Z,24.60
2017-08-26T13:24:47.932Z,24.60
2017-08-26T13:27:15.437Z,24.60
2017-08-26T13:29:43.272Z,24.60
2017-08-26T13:32:10.801Z,24.60
2017-08-26T13:34:38.320Z,24.70
2017-08-26T13:37:05.880Z,24.70
2017-08-26T13:39:33.499Z,24.70
2017-08-26T13:42:01.156Z,24.70
2017-08-26T13:44:28.700Z,24.70
2017-08-26T13:46:56.219Z,24.70
2017-08-26T13:49:23.796Z,24.80
2017-08-26T13:51:51.323Z,24.70
2017-08-26T13:54:18.917Z,24.70
2017-08-26T13:56:46.444Z,24.60
2017-08-26T13:59:14.067Z,24.60
2017-08-26T14:01:41.634Z,24.50
2017-08-26T14:04:09.140Z,24.40
2017-08-26T14:06:36.700Z,24.30
2017-08-26T14:09:04.265Z,24.40
2017-08-26T14:11:31.816Z,24.40
2017-08-26T14:13:59.376Z,24.50
2017-08-26T14:16:26.885Z,24.70
2017-08-26T14:18:54.459Z,24.80
2017-08-26T14:21:22.005Z,24.90
2017-08-26T14:23:49.595Z,25.00
2017-08-26T14:26:17.126Z,24.90
2017-08-26T14:28:44.639Z,24.90
2017-08-26T14:31:12.141Z,24.90
2017-08-26T14:33:39.790Z,24.90
2017-08-26T14:36:07.324Z,24.90
2017-08-26T14:38:34.835Z,24.90
2017-08-26T14:41:02.394Z,24.80
2017-08-26T14:43:29.940Z,24.70
2017-08-26T14:45:57.525Z,24.70
2017-08-26T14:48:25.044Z,24.70
2017-08-26T14:50:52.609Z,24.70
2017-08-26T14:53:20.119Z,24.70
2017-08-26T14:55:47.684Z,24.60
2017-08-26T14:58:15.247Z,24.60
2017-08-26T15:00:42.752Z,24.40
2017-08-26T15:03:10.254Z,24.50
2017-08-26T15:05:37.839Z,24.50
2017-08-26T15:08:05.376Z,24.50
2017-08-26T15:10:33.298Z,24.50
2017-08-26T15:13:00.856Z,24.40
2017-08-26T15:15:28.416Z,24.40
2017-08-26T15:17:56.032Z,24.30
2017-08-26T15:20:23.581Z,24.30
2017-08-26T15:22:51.133Z,24.20
2017-08-26T15:25:18.741Z,24.10
2017-08-26T15:27:46.825Z,24.20
2017-08-26T15:30:14.349Z,24.10
2017-08-26T15:32:41.902Z,24.10
2017-08-26T15:35:09.428Z,24.10
2017-08-26T15:37:37.015Z,24.10
2017-08-26T15:40:04.621Z,24.10
2017-08-26T15:42:32.146Z,24.10
2017-08-26T15:44:59.743Z,24.10
2017-08-26T15:47:27.251Z,24.00
2017-08-26T15:49:54.746Z,24.00
2017-08-26T15:52:22.256Z,23.90
2017-08-26T15:54:49.792Z,23.80
2017-08-26T15:57:17.394Z,23.70
2017-08-26T15:59:44.966Z,23.70
2017-08-26T16:02:12.564Z,23.60
2017-08-26T16:04:40.099Z,23.60
2017-08-26T16:07:07.612Z,23.70
2017-08-26T16:09:35.138Z,23.60
2017-08-26T16:12:02.707Z,23.70
2017-08-26T16:14:30.299Z,23.80
2017-08-26T16:16:57.933Z,23.70
2017-08-26T16:19:25.618Z,23.80
2017-08-26T16:21:53.183Z,23.70
2017-08-26T16:24:20.708Z,23.70
2017-08-26T16:26:48.340Z,23.60
2017-08-26T16:29:15.949Z,23.60
2017-08-26T16:31:43.732Z,23.50
2017-08-26T16:34:11.351Z,23.50
2017-08-26T16:36:38.974Z,23.40
2017-08-26T16:39:06.514Z,23.40
2017-08-26T16:41:34.149Z,23.40
2017-08-26T16:44:01.771Z,23.40
2017-08-26T16:46:29.370Z,23.40
2017-08-26T16:48:56.932Z,23.30
2017-08-26T16:51:24.542Z,23.30
2017-08-26T16:53:52.168Z,23.30
2017-08-26T16:56:19.714Z,23.40
2017-08-26T16:58:47.269Z,23.30
2017-08-26T17:01:14.893Z,23.30
2017-08-26T17:03:42.448Z,23.30
2017-08-26T17:06:10.349Z,23.30
2017-08-26T17:08:38.097Z,23.20
2017-08-26T17:11:05.637Z,23.20
2017-08-26T17:13:33.459Z,23.20
2017-08-26T17:16:01.074Z,23.20
2017-08-26T17:18:28.629Z,23.10
2017-08-26T17:20:56.203Z,23.00
2017-08-26T17:23:23.803Z,23.00
2017-08-26T17:25:51.407Z,22.90
2017-08-26T17:28:18.967Z,22.90
2017-08-26T17:30:46.526Z,22.90
2017-08-26T17:33:14.096Z,22.90
2017-08-26T17:35:41.655Z,22.80
2017-08-26T17:38:09.309Z,22.60
2017-08-26T17:40:36.955Z,22.60
2017-08-26T17:43:04.525Z,22.60
2017-08-26T17:45:32.038Z,22.50
2017-08-26T17:47:59.605Z,22.40
2017-08-26T17:50:27.225Z,22.40
2017-08-26T17:52:55.625Z,22.30
2017-08-26T17:55:23.188Z,22.30
2017-08-26T17:57:50.752Z,22.30
2017-08-26T18:00:18.306Z,22.30
2017-08-26T18:02:45.911Z,22.30
2017-08-26T18:05:13.428Z,22.30
2017-08-26T18:07:40.989Z,22.20
2017-08-26T18:10:08.576Z,22.20
2017-08-26T18:12:36.118Z,22.20
2017-08-26T18:15:03.820Z,22.10
2017-08-26T18:17:31.391Z,22.10
2017-08-26T18:19:58.996Z,22.00
2017-08-26T18:22:26.554Z,21.80
2017-08-26T18:24:54.252Z,21.80
2017-08-26T18:27:22.028Z,21.70
2017-08-26T18:29:50.324Z,21.60
2017-08-26T18:32:17.925Z,21.50
2017-08-26T18:34:45.525Z,21.60
2017-08-26T18:37:13.144Z,21.50
2017-08-26T18:39:42.798Z,21.60
2017-08-26T18:42:10.352Z,21.50
2017-08-26T18:44:38.019Z,21.50
2017-08-26T18:47:05.563Z,21.50
2017-08-26T18:49:33.436Z,21.40
2017-08-26T18:52:00.998Z,21.30
2017-08-26T18:54:28.559Z,21.30
2017-08-26T18:56:57.292Z,21.20
2017-08-26T18:59:24.905Z,21.20
2017-08-26T19:01:52.791Z,21.20
2017-08-26T19:04:20.483Z,21.20
2017-08-26T19:06:48.413Z,21.20
2017-08-26T19:09:16.060Z,21.10
2017-08-26T19:11:44.433Z,21.00
2017-08-26T19:14:12.323Z,20.90
2017-08-26T19:16:40.205Z,20.90
2017-08-26T19:19:07.739Z,21.00
2017-08-26T19:21:35.491Z,20.90
2017-08-26T19:24:03.067Z,20.80
2017-08-26T19:26:30.931Z,20.70
2017-08-26T19:28:58.612Z,20.70
2017-08-26T19:31:26.332Z,20.70
2017-08-26T19:33:53.928Z,20.70
2017-08-26T19:36:21.665Z,20.60
2017-08-26T19:38:49.444Z,20.60
2017-08-26T19:41:16.992Z,20.60
2017-08-26T19:43:44.556Z,20.50
2017-08-26T19:46:12.198Z,20.40
2017-08-26T19:48:40.785Z,20.40
2017-08-26T19:51:08.372Z,20.40
2017-08-26T19:53:36.055Z,20.40
2017-08-26T19:56:03.783Z,20.40
2017-08-26T19:58:31.442Z,20.30
2017-08-26T20:00:59.020Z,20.40
2017-08-26T20:03:26.568Z,20.40
2017-08-26T20:05:54.436Z,20.40
2017-08-26T20:08:22.075Z,20.40
2017-08-26T20:10:49.671Z,20.30
2017-08-26T20:13:17.271Z,20.30
2017-08-26T20:15:44.867Z,20.30
2017-08-26T20:18:12.541Z,20.30
2017-08-26T20:20:40.299Z,20.20
2017-08-26T20:23:07.968Z,20.30
2017-08-26T20:25:35.620Z,20.30
2017-08-26T20:28:03.183Z,20.30
2017-08-26T20:30:30.785Z,20.30
2017-08-26T20:32:58.463Z,20.30
2017-08-26T20:35:26.042Z,20.30
2017-08-26T20:37:53.623Z,20.30
2017-08-26T20:40:21.182Z,20.20
2017-08-26T20:42:48.744Z,20.20
2017-08-26T20:45:16.300Z,20.20
2017-08-26T20:47:43.955Z,20.20
2017-08-26T20:50:11.653Z,20.10
2017-08-26T20:52:39.289Z,20.10
2017-08-26T20:55:06.858Z,20.00
2017-08-26T20:57:34.454Z,20.00
2017-08-26T21:00:02.087Z,20.00
2017-08-26T21:02:29.768Z,19.90
2017-08-26T21:04:57.312Z,19.90
2017-08-26T21:07:24.884Z,19.90
2017-08-26T21:09:53.448Z,19.90
2017-08-26T21:12:21.938Z,19.90
2017-08-26T21:14:49.469Z,19.80
2017-08-26T21:17:16.966Z,19.90
2017-08-26T21:19:44.514Z,19.80
2017-08-26T21:22:12.197Z,19.70
2017-08-26T21:24:39.851Z,19.60
2017-08-26T21:27:07.427Z,19.60
2017-08-26T21:29:35.112Z,19.50
2017-08-26T21:32:02.900Z,19.50
2017-08-26T21:34:30.460Z,19.30
2017-08-26T21:36:58.272Z,19.30
2017-08-26T21:39:25.873Z,19.20
2017-08-26T21:41:53.511Z,19.20
2017-08-26T21:44:21.141Z,19.20
2017-08-26T21:46:48.700Z,19.20
2017-08-26T21:49:16.294Z,19.20
2017-08-26T21:51:44.063Z,19.10
2017-08-26T21:54:11.627Z,19.10
2017-08-26T21:56:39.309Z,19.10
2017-08-26T21:59:06.862Z,19.00
2017-08-26T22:01:34.376Z,18.90
2017-08-26T22:04:01.974Z,19.00
2017-08-26T22:06:29.526Z,18.90
2017-08-26T22:08:57.252Z,19.00
2017-08-26T22:11:24.824Z,19.00
2017-08-26T22:13:52.403Z,19.00
2017-08-26T22:16:19.932Z,19.10
2017-08-26T22:18:47.461Z,19.10
2017-08-26T22:21:15.034Z,19.20
2017-08-26T22:23:42.575Z,19.20
2017-08-26T22:26:10.117Z,19.20
2017-08-26T22:28:37.782Z,19.20
2017-08-26T22:31:05.360Z,19.20
2017-08-26T22:33:32.928Z,19.30
2017-08-26T22:36:00.469Z,19.20
2017-08-26T22:38:27.975Z,19.20
2017-08-26T22:40:55.520Z,19.20
2017-08-26T22:43:23.056Z,19.10
2017-08-26T22:45:50.604Z,19.10
2017-08-26T22:48:18.138Z,19.10
2017-08-26T22:50:46.097Z,19.20
2017-08-26T22:53:13.883Z,19.20
2017-08-26T22:55:41.393Z,19.10
2017-08-26T22:58:08.948Z,19.20
2017-08-26T23:00:36.492Z,19.20
2017-08-26T23:03:04.002Z,19.10
2017-08-26T23:05:31.716Z,19.00
2017-08-26T23:07:59.272Z,19.10
2017-08-26T23:10:26.784Z,19.00
2017-08-26T23:12:54.324Z,18.90
2017-08-26T23:15:21.848Z,18.90
2017-08-26T23:17:49.397Z,19.00
2017-08-26T23:20:17.001Z,19.00
2017-08-26T23:22:44.566Z,19.00
2017-08-26T23:25:12.090Z,18.90
2017-08-26T23:27:39.623Z,18.90
2017-08-26T23:30:07.904Z,18.90
2017-08-26T23:32:35.449Z,18.90
2017-08-26T23:35:02.946Z,18.70
2017-08-26T23:37:30.500Z,18.80
2017-08-26T23:39:58.035Z,18.60
2017-08-26T23:42:25.557Z,18.50
2017-08-26T23:44:53.119Z,18.40
2017-08-26T23:47:20.662Z,18.40
2017-08-26T23:49:48.191Z,18.30
2017-08-26T23:52:15.704Z,18.30
2017-08-26T23:54:43.232Z,18.30
2017-08-26T23:57:10.782Z,18.20
2017-08-26T23:59:38.320Z,18.20
